Time;durP1;ratioP1;P1;durP2;ratioP2;P2;SDS_P1;SDS_P2;PMS_P1;PMS_P2;Temp;Humidity;BMP_temperature;BMP_pressure;BME280_temperature;BME280_humidity;BME280_pressure;Samples;Min_cycle;Max_cycle;Signal;HPM_P1;HPM_P2
2022/11/04 00:02:32;;;;;;;1.15;0.85;;;20.30;62.30;;;;;;6295626;28;20500;-68
2022/11/04 00:05:32;;;;;;;1.98;1.05;;;20.30;62.20;;;;;;6295616;28;20025;-68
2022/11/04 00:08:33;;;;;;;1.20;0.93;;;20.30;62.30;;;;;;6295074;28;20127;-67
2022/11/04 00:17:17;;;;;;;1.75;1.17;;;20.30;62.30;;;;;;6295222;28;20086;-68
2022/11/04 00:18:14;;;;;;;2.17;1.20;;;20.30;62.30;;;;;;6295171;28;20548;-68
2022/11/04 00:34:48;;;;;;;4.00;1.10;;;20.30;62.30;;;;;;6294695;28;20384;-68
2022/11/04 00:37:49;;;;;;;1.48;1.00;;;20.30;62.30;;;;;;6294725;28;20082;-68
2022/11/04 00:40:50;;;;;;;1.33;1.08;;;20.30;62.30;;;;;;6294417;28;20416;-68
2022/11/04 00:43:59;;;;;;;2.17;1.40;;;20.30;62.30;;;;;;6294526;28;20542;-67
2022/11/04 00:46:59;;;;;;;2.35;1.10;;;20.30;62.20;;;;;;6294958;28;20033;-67
2022/11/04 00:50:00;;;;;;;1.65;1.20;;;20.30;62.30;;;;;;6294021;28;20462;-68
2022/11/04 00:53:02;;;;;;;1.67;1.10;;;20.30;62.30;;;;;;6294641;28;20044;-68
2022/11/04 00:56:02;;;;;;;1.67;1.20;;;20.30;62.30;;;;;;6294234;28;20032;-68
2022/11/04 00:59:03;;;;;;;2.17;1.30;;;20.30;62.30;;;;;;6294263;28;20028;-68
2022/11/04 01:02:05;;;;;;;1.48;1.13;;;20.30;62.30;;;;;;6294197;28;20111;-68
2022/11/04 01:05:07;;;;;;;1.25;0.77;;;20.30;62.30;;;;;;6293947;28;20032;-68
2022/11/04 01:08:07;;;;;;;1.25;1.00;;;20.30;62.20;;;;;;6293971;28;20150;-67
2022/11/04 01:11:09;;;;;;;2.08;1.30;;;20.30;63.10;;;;;;6293730;28;20024;-68
2022/11/04 01:14:10;;;;;;;1.40;1.10;;;20.30;62.30;;;;;;6294296;28;20386;-67
2022/11/04 01:17:10;;;;;;;1.80;1.30;;;20.30;62.20;;;;;;6293752;28;20040;-67
2022/11/04 01:20:12;;;;;;;1.60;1.10;;;20.30;62.20;;;;;;6293726;28;20040;-67
2022/11/04 01:23:13;;;;;;;1.83;1.25;;;20.30;62.30;;;;;;6294140;28;20028;-67
2022/11/04 01:26:17;;;;;;;2.00;1.25;;;20.30;62.20;;;;;;6293822;28;20031;-68
2022/11/04 01:29:17;;;;;;;1.60;1.10;;;20.30;62.20;;;;;;6293340;28;20452;-67
2022/11/04 01:32:18;;;;;;;1.42;1.10;;;20.30;62.20;;;;;;6309031;28;20039;-67
2022/11/04 01:35:18;;;;;;;2.13;1.10;;;20.30;62.20;;;;;;6293554;28;20028;-68
2022/11/04 01:38:19;;;;;;;1.38;1.13;;;20.30;62.20;;;;;;6292353;28;20066;-67
2022/11/04 01:41:25;;;;;;;2.28;1.38;;;20.30;62.20;;;;;;6293196;28;20032;-68
2022/11/04 01:44:41;;;;;;;1.52;1.00;;;20.30;62.00;;;;;;6292938;28;20391;-67
2022/11/04 01:48:08;;;;;;;1.98;1.30;;;20.30;62.10;;;;;;6293272;28;20021;-68
2022/11/04 01:51:09;;;;;;;1.70;0.93;;;20.30;62.20;;;;;;6292756;28;20071;-67
2022/11/04 01:54:10;;;;;;;1.60;1.02;;;20.30;62.20;;;;;;6292932;28;20028;-69
2022/11/04 01:57:17;;;;;;;1.40;1.00;;;20.30;62.20;;;;;;6292764;28;20515;-69
2022/11/04 02:00:18;;;;;;;2.85;1.40;;;20.30;62.20;;;;;;6291497;28;20032;-67
2022/11/04 02:03:35;;;;;;;1.65;1.25;;;20.30;62.20;;;;;;6292884;28;20552;-67
2022/11/04 02:06:35;;;;;;;1.75;0.98;;;20.30;62.20;;;;;;6292678;28;20040;-69
2022/11/04 02:09:38;;;;;;;1.45;1.10;;;20.30;62.20;;;;;;6292633;28;20069;-70
2022/11/04 02:12:50;;;;;;;1.50;1.13;;;20.30;62.20;;;;;;6292828;28;20024;-69
2022/11/04 02:16:19;;;;;;;1.55;1.20;;;20.30;62.30;;;;;;6292284;28;20021;-70
2022/11/04 02:19:43;;;;;;;1.40;1.10;;;20.30;62.20;;;;;;6267433;28;20020;-69
2022/11/04 02:22:53;;;;;;;1.70;1.30;;;20.30;62.20;;;;;;6279482;28;20325;-70
2022/11/04 02:26:11;;;;;;;1.95;1.20;;;20.30;62.20;;;;;;6292315;28;20374;-69
2022/11/04 02:29:31;;;;;;;2.10;1.33;;;20.30;62.20;;;;;;6292256;28;20407;-69
2022/11/04 02:32:58;;;;;;;2.30;1.17;;;20.30;62.20;;;;;;6291979;28;20479;-69
2022/11/04 02:36:09;;;;;;;1.73;1.10;;;20.30;62.20;;;;;;6292115;28;20033;-69
2022/11/04 02:39:27;;;;;;;2.08;1.25;;;20.20;62.00;;;;;;6292196;28;20032;-70
2022/11/04 02:42:36;;;;;;;1.90;1.00;;;20.30;62.20;;;;;;6292097;28;20064;-69
2022/11/04 02:45:43;;;;;;;1.52;0.93;;;20.30;62.20;;;;;;6292331;28;20061;-69
2022/11/04 02:48:50;;;;;;;2.28;1.30;;;20.30;62.20;;;;;;6291470;28;20035;-69
2022/11/04 02:52:01;;;;;;;2.45;1.17;;;20.30;62.20;;;;;;6291347;28;20499;-70
2022/11/04 02:55:16;;;;;;;1.40;1.05;;;20.30;62.10;;;;;;6291808;28;20241;-67
2022/11/04 02:58:57;;;;;;;2.00;1.20;;;20.30;62.20;;;;;;6292060;28;20024;-67
2022/11/04 03:02:02;;;;;;;2.55;1.35;;;20.30;62.20;;;;;;6290529;28;20075;-67
2022/11/04 03:05:07;;;;;;;3.85;1.08;;;20.30;62.20;;;;;;6291565;28;20187;-67
2022/11/04 03:08:28;;;;;;;1.83;1.15;;;20.20;62.00;;;;;;6292520;28;20128;-68
2022/11/04 03:11:30;;;;;;;1.65;1.30;;;20.30;62.20;;;;;;6291516;28;20133;-69
2022/11/04 03:14:41;;;;;;;1.50;1.10;;;20.30;62.20;;;;;;6291488;28;20522;-69
2022/11/04 03:18:09;;;;;;;1.55;1.20;;;20.30;62.10;;;;;;6292232;28;20055;-69
2022/11/04 03:21:12;;;;;;;1.42;1.10;;;20.30;62.20;;;;;;6291642;28;20116;-70
2022/11/04 03:24:13;;;;;;;1.45;1.05;;;20.30;62.20;;;;;;6290817;28;20021;-69
2022/11/04 03:27:38;;;;;;;2.00;0.88;;;20.20;62.10;;;;;;6291434;28;20518;-70
2022/11/04 03:30:43;;;;;;;2.55;1.33;;;20.30;62.20;;;;;;6265991;28;20082;-69
2022/11/04 03:33:44;;;;;;;;;;;20.30;62.20;;;;;;6277688;28;20025;-69
2022/11/04 03:36:45;;;;;;;2.03;1.20;;;20.30;62.20;;;;;;6291143;28;19927;-69
2022/11/04 03:39:46;;;;;;;1.75;1.23;;;20.30;62.20;;;;;;6291284;28;20116;-70
2022/11/04 03:42:56;;;;;;;1.88;1.15;;;20.30;62.20;;;;;;6291237;28;20515;-69
2022/11/04 03:45:56;;;;;;;1.80;1.08;;;20.30;62.20;;;;;;6290787;28;20558;-70
2022/11/04 03:48:59;;;;;;;2.28;1.15;;;20.30;62.20;;;;;;6290969;28;20025;-69
2022/11/04 03:51:59;;;;;;;2.13;1.35;;;20.30;62.30;;;;;;6291341;28;20080;-70
2022/11/04 03:55:01;;;;;;;3.30;1.40;;;20.30;62.20;;;;;;6290892;28;20035;-69
2022/11/04 03:58:24;;;;;;;1.75;0.98;;;20.30;62.20;;;;;;6290971;28;20020;-69
2022/11/04 04:01:33;;;;;;;1.67;1.20;;;20.20;62.20;;;;;;6292632;28;20094;-69
2022/11/04 04:05:06;;;;;;;1.83;1.23;;;20.20;62.10;;;;;;6295822;28;20121;-70
2022/11/04 04:08:36;;;;;;;1.48;1.05;;;20.20;62.00;;;;;;6295483;28;20080;-69
2022/11/04 04:11:59;;;;;;;2.30;1.10;;;20.20;62.10;;;;;;6295030;28;20074;-69
2022/11/04 04:15:22;;;;;;;2.42;1.30;;;20.20;62.10;;;;;;6295207;28;20031;-71
2022/11/04 04:18:32;;;;;;;1.75;1.27;;;20.30;62.30;;;;;;6294595;28;20031;-69
2022/11/04 04:21:45;;;;;;;1.30;1.10;;;20.20;62.00;;;;;;6294929;28;20039;-70
2022/11/04 04:28:11;;;;;;;2.10;1.20;;;20.20;62.50;;;;;;6294713;28;20477;-70
2022/11/04 04:31:48;;;;;;;1.23;1.08;;;20.20;62.00;;;;;;6294700;28;20047;-69
2022/11/04 04:34:39;;;;;;;2.33;1.27;;;20.20;62.00;;;;;;6294950;28;20170;-70
2022/11/04 04:37:40;;;;;;;1.70;1.20;;;20.20;62.00;;;;;;6293432;28;20031;-70
2022/11/04 04:47:26;;;;;;;2.15;1.15;;;20.20;62.10;;;;;;6294378;28;20104;-71
2022/11/04 04:50:35;;;;;;;1.73;1.23;;;20.20;62.00;;;;;;6294046;28;20094;-70
2022/11/04 04:53:37;;;;;;;1.63;1.20;;;20.20;62.10;;;;;;6294671;28;20064;-69
2022/11/04 04:56:38;;;;;;;1.67;1.27;;;20.20;62.10;;;;;;6294167;28;20020;-70
2022/11/04 05:03:35;;;;;;;2.85;1.10;;;20.20;62.10;;;;;;6294540;28;20502;-70
2022/11/04 05:06:36;;;;;;;1.75;1.05;;;20.20;62.10;;;;;;6293790;28;20059;-69
2022/11/04 05:09:36;;;;;;;1.50;1.17;;;20.20;62.20;;;;;;6293859;28;20100;-70
2022/11/04 05:16:06;;;;;;;1.83;1.23;;;20.20;62.10;;;;;;6293763;28;20483;-70
2022/11/04 05:19:07;;;;;;;1.85;1.20;;;20.20;62.10;;;;;;6293480;28;20024;-69
2022/11/04 05:22:07;;;;;;;1.73;1.40;;;20.20;62.10;;;;;;6293418;28;20075;-69
2022/11/04 05:25:08;;;;;;;1.23;0.95;;;20.20;62.10;;;;;;6293990;28;20089;-69
2022/11/04 05:28:09;;;;;;;1.83;1.27;;;20.20;62.00;;;;;;6293521;28;20249;-69
2022/11/04 05:31:09;;;;;;;1.85;1.02;;;20.20;62.20;;;;;;6293010;28;20047;-70
2022/11/04 05:34:11;;;;;;;1.95;1.30;;;20.20;62.00;;;;;;6293439;28;20213;-69
2022/11/04 05:37:11;;;;;;;1.25;1.10;;;20.20;62.00;;;;;;6292939;28;20035;-70
2022/11/04 05:40:12;;;;;;;1.77;1.30;;;20.20;62.10;;;;;;6293206;28;20020;-69
2022/11/04 05:43:13;;;;;;;2.42;1.30;;;20.20;62.00;;;;;;6293062;28;20492;-69
2022/11/04 05:46:13;;;;;;;1.20;0.90;;;20.20;62.00;;;;;;6293384;28;20078;-70
2022/11/04 05:49:14;;;;;;;2.25;1.52;;;20.20;62.00;;;;;;6292454;28;20074;-69
2022/11/04 05:52:14;;;;;;;1.73;1.33;;;20.20;62.10;;;;;;6292756;28;20131;-69
2022/11/04 05:55:15;;;;;;;1.73;1.30;;;20.20;62.00;;;;;;6293235;28;20021;-70
2022/11/04 05:58:16;;;;;;;1.35;1.05;;;20.20;62.00;;;;;;6293047;28;20375;-70
2022/11/04 06:01:29;;;;;;;1.65;1.13;;;20.20;62.00;;;;;;6287421;28;20036;-70
2022/11/04 06:04:30;;;;;;;1.67;1.20;;;20.20;62.00;;;;;;6268067;28;20083;-69
2022/11/04 06:07:30;;;;;;;3.03;1.40;;;20.20;62.00;;;;;;6288870;28;20024;-70
2022/11/04 06:10:31;;;;;;;1.40;1.10;;;20.20;62.00;;;;;;6292622;28;20020;-69
2022/11/04 06:13:32;;;;;;;2.33;1.40;;;20.20;62.00;;;;;;6293242;28;20101;-70
2022/11/04 06:16:32;;;;;;;2.22;1.42;;;20.20;62.00;;;;;;6292902;28;20479;-68
2022/11/04 06:19:33;;;;;;;2.08;1.55;;;20.20;62.10;;;;;;6292425;28;20028;-66
2022/11/04 06:22:33;;;;;;;1.85;1.20;;;20.20;62.10;;;;;;6292318;28;20024;-68
2022/11/04 06:25:34;;;;;;;1.48;1.30;;;20.20;62.00;;;;;;6291987;28;20498;-67
2022/11/04 06:28:35;;;;;;;1.90;1.20;;;20.20;62.00;;;;;;6292673;28;20085;-67
2022/11/04 06:31:35;;;;;;;2.08;1.40;;;20.20;62.10;;;;;;6291727;28;20038;-67
2022/11/04 06:34:36;;;;;;;2.25;1.58;;;20.20;61.70;;;;;;6292673;28;20028;-67
2022/11/04 06:37:37;;;;;;;3.80;1.77;;;20.20;60.60;;;;;;6292451;28;20060;-68
2022/11/04 06:40:38;;;;;;;4.38;2.50;;;20.20;60.30;;;;;;6292069;28;20398;-69
2022/11/04 06:43:38;;;;;;;8.90;3.03;;;20.20;60.20;;;;;;6291945;28;20078;-70
2022/11/04 06:46:41;;;;;;;9.95;3.72;;;20.20;59.00;;;;;;6292160;28;20403;-70
2022/11/04 06:49:41;;;;;;;6.75;3.50;;;20.20;58.70;;;;;;6292673;28;20508;-69
2022/11/04 06:52:42;;;;;;;8.13;3.78;;;20.20;58.70;;;;;;6292136;28;20118;-70
2022/11/04 06:55:43;;;;;;;5.93;3.13;;;20.20;59.00;;;;;;6292577;28;20021;-70
2022/11/04 06:58:52;;;;;;;8.57;3.70;;;20.20;59.40;;;;;;6291233;28;20024;-68
2022/11/04 07:01:53;;;;;;;10.68;3.30;;;20.20;59.50;;;;;;6288224;28;20071;-69
2022/11/04 07:04:53;;;;;;;7.55;3.28;;;20.20;59.90;;;;;;6279105;28;20082;-70
2022/11/04 07:07:54;;;;;;;8.38;2.70;;;20.20;59.90;;;;;;6284972;28;20029;-70
2022/11/04 07:10:55;;;;;;;8.55;2.95;;;20.20;60.20;;;;;;6294217;28;20025;-70
2022/11/04 07:13:56;;;;;;;3.63;2.60;;;20.20;60.20;;;;;;6293936;28;20021;-69
2022/11/04 07:16:56;;;;;;;5.70;2.80;;;20.20;60.40;;;;;;6293863;28;20020;-70
2022/11/04 07:19:57;;;;;;;4.55;2.53;;;20.20;60.40;;;;;;6294232;28;20029;-70
2022/11/04 07:22:57;;;;;;;7.68;2.63;;;20.20;60.50;;;;;;6293830;28;20105;-70
2022/11/04 07:25:59;;;;;;;4.90;2.55;;;20.20;60.80;;;;;;6293559;28;20029;-70
2022/11/04 07:29:00;;;;;;;4.60;2.60;;;20.20;60.70;;;;;;6293707;28;20439;-70
2022/11/04 07:32:01;;;;;;;4.43;2.60;;;20.20;60.70;;;;;;6293848;28;20060;-70
2022/11/04 07:35:02;;;;;;;5.47;2.90;;;20.20;60.70;;;;;;6294287;28;20391;-70
2022/11/04 07:38:02;;;;;;;4.50;2.55;;;20.20;60.70;;;;;;6298128;28;20024;-69
2022/11/04 07:41:04;;;;;;;6.45;2.22;;;20.20;60.70;;;;;;6298548;28;20033;-67
2022/11/04 07:44:04;;;;;;;4.22;2.38;;;20.20;60.80;;;;;;6297963;28;20030;-70
2022/11/04 07:47:05;;;;;;;6.93;2.95;;;20.20;60.90;;;;;;6298090;28;20447;-69
2022/11/04 07:50:06;;;;;;;4.20;2.50;;;20.20;61.00;;;;;;6297835;28;20028;-69
2022/11/04 07:53:07;;;;;;;4.75;2.40;;;20.20;61.10;;;;;;6297935;28;20485;-70
2022/11/04 07:56:13;;;;;;;7.18;2.20;;;20.20;61.10;;;;;;6298628;28;20025;-70
2022/11/04 07:59:13;;;;;;;4.00;2.28;;;20.20;61.10;;;;;;6297507;28;20446;-69
2022/11/04 08:02:14;;;;;;;4.85;2.60;;;20.20;61.10;;;;;;6298058;28;20082;-70
2022/11/04 08:05:15;;;;;;;5.35;2.20;;;20.20;61.00;;;;;;6297922;28;20728;-70
2022/11/04 08:08:16;;;;;;;3.35;2.17;;;20.20;61.10;;;;;;6297973;28;20017;-70
2022/11/04 08:11:19;;;;;;;4.63;2.47;;;20.20;62.00;;;;;;6297707;28;20028;-70
2022/11/04 08:14:19;;;;;;;3.13;2.15;;;20.20;61.20;;;;;;6297483;28;20024;-70
2022/11/04 08:17:20;;;;;;;5.22;2.50;;;20.20;61.10;;;;;;6297484;28;20024;-69
2022/11/04 08:20:21;;;;;;;4.55;2.45;;;20.20;61.10;;;;;;6297621;28;20096;-69
2022/11/04 08:23:21;;;;;;;6.30;2.55;;;20.20;61.40;;;;;;6297427;28;20032;-70
2022/11/04 08:26:22;;;;;;;3.60;2.30;;;20.20;61.10;;;;;;6297248;28;20146;-70
2022/11/04 08:29:23;;;;;;;4.05;2.60;;;20.20;61.10;;;;;;6297497;28;20057;-70
2022/11/04 08:32:23;;;;;;;4.88;2.17;;;20.20;61.10;;;;;;6297166;28;20028;-70
2022/11/04 08:35:24;;;;;;;3.00;2.20;;;20.20;61.20;;;;;;6296883;28;20024;-69
2022/11/04 08:38:25;;;;;;;5.00;2.20;;;20.20;61.10;;;;;;6279859;28;20475;-69
2022/11/04 08:41:28;;;;;;;3.35;2.15;;;20.20;61.20;;;;;;6295989;28;20035;-69
2022/11/04 08:44:29;;;;;;;8.55;2.70;;;20.20;61.40;;;;;;6295235;28;20028;-69
2022/11/04 08:47:29;;;;;;;5.53;2.92;;;20.20;61.00;;;;;;6295130;28;20097;-70
2022/11/04 08:50:30;;;;;;;5.30;2.47;;;20.20;60.30;;;;;;6318253;28;20083;-69
2022/11/04 08:53:31;;;;;;;3.78;2.38;;;20.20;60.60;;;;;;6307617;28;20021;-69
2022/11/04 08:56:34;;;;;;;4.80;2.80;;;20.20;60.70;;;;;;6293169;28;20024;-69
2022/11/04 08:59:35;;;;;;;5.25;2.42;;;20.20;60.90;;;;;;6295527;28;20510;-69
2022/11/04 09:02:36;;;;;;;3.30;2.35;;;20.20;61.10;;;;;;6295485;28;20028;-69
2022/11/04 09:05:43;;;;;;;5.28;2.80;;;20.20;61.20;;;;;;6295854;28;20024;-67
2022/11/04 09:08:45;;;;;;;3.83;2.63;;;20.20;60.60;;;;;;6295020;28;20017;-70
2022/11/04 09:11:46;;;;;;;3.72;2.58;;;20.20;60.90;;;;;;6295887;28;20029;-69
2022/11/04 09:14:46;;;;;;;5.10;2.70;;;20.20;61.80;;;;;;6294788;28;20020;-70
2022/11/04 09:17:47;;;;;;;6.03;2.67;;;20.20;61.00;;;;;;6295993;28;20123;-70
2022/11/04 09:20:47;;;;;;;6.45;2.35;;;20.20;61.00;;;;;;6295268;28;20028;-69
2022/11/04 09:23:48;;;;;;;4.40;2.75;;;20.20;60.70;;;;;;6295229;28;20027;-70
2022/11/04 09:26:49;;;;;;;8.40;2.90;;;20.20;60.90;;;;;;6292558;28;20115;-69
2022/11/04 09:29:49;;;;;;;6.93;3.15;;;20.20;60.40;;;;;;6295189;28;20391;-70
2022/11/04 09:32:51;;;;;;;4.22;2.60;;;20.20;60.00;;;;;;6294414;28;20028;-69
2022/11/04 09:35:55;;;;;;;5.47;2.97;;;20.20;59.70;;;;;;6295310;28;20387;-69
2022/11/04 09:38:56;;;;;;;5.85;3.22;;;20.20;59.70;;;;;;6294894;28;20025;-69
2022/11/04 09:42:14;;;;;;;5.00;2.92;;;20.20;59.50;;;;;;6294820;28;20517;-69
2022/11/04 09:45:17;;;;;;;8.10;3.40;;;20.20;60.20;;;;;;6294299;28;20483;-69
2022/11/04 09:48:33;;;;;;;6.60;3.20;;;20.10;61.00;;;;;;6294477;28;20036;-69
2022/11/04 09:51:35;;;;;;;7.43;3.05;;;20.10;60.00;;;;;;6294897;28;20051;-70
2022/11/04 09:55:02;;;;;;;8.30;4.30;;;20.10;59.80;;;;;;6294133;28;20023;-69
2022/11/04 09:58:03;;;;;;;9.68;3.83;;;20.10;58.90;;;;;;6283181;28;20037;-69
2022/11/04 10:01:37;;;;;;;9.93;3.45;;;20.10;59.00;;;;;;6294193;28;20502;-70
2022/11/04 10:04:38;;;;;;;5.88;3.08;;;20.10;59.20;;;;;;6294064;28;20133;-70
2022/11/04 10:08:01;;;;;;;7.13;3.38;;;20.20;59.20;;;;;;6294230;28;20025;-70
2022/11/04 10:11:27;;;;;;;5.38;2.90;;;20.20;59.40;;;;;;6293403;28;20533;-69
2022/11/04 10:14:54;;;;;;;7.93;3.80;;;20.20;59.50;;;;;;6293479;28;20032;-70
2022/11/04 10:18:16;;;;;;;5.88;3.40;;;20.20;59.50;;;;;;6294525;28;20060;-69
2022/11/04 10:21:36;;;;;;;5.35;2.80;;;20.20;59.60;;;;;;6293901;28;20055;-70
2022/11/04 10:24:42;;;;;;;4.60;2.70;;;20.20;59.70;;;;;;6293022;28;20459;-68
2022/11/04 10:27:45;;;;;;;4.57;2.72;;;20.10;59.70;;;;;;6294010;28;20030;-67
2022/11/04 10:30:50;;;;;;;5.60;2.80;;;20.20;60.00;;;;;;6289229;28;20467;-69
2022/11/04 10:34:02;;;;;;;5.28;2.70;;;20.20;60.00;;;;;;6271556;28;20090;-70
2022/11/04 10:37:07;;;;;;;5.07;2.72;;;20.20;60.00;;;;;;6292374;28;20139;-70
2022/11/04 10:40:25;;;;;;;4.05;2.17;;;20.20;60.20;;;;;;6294165;28;20021;-69
2022/11/04 10:43:35;;;;;;;4.55;2.65;;;20.20;60.40;;;;;;6293070;28;20036;-69
2022/11/04 10:46:58;;;;;;;4.35;2.30;;;20.10;60.20;;;;;;6291250;28;20032;-69
2022/11/04 10:50:10;;;;;;;7.13;2.53;;;20.20;59.90;;;;;;6293092;28;20074;-69
2022/11/04 10:53:21;;;;;;;5.43;2.78;;;20.20;59.90;;;;;;6293290;28;20483;-69
2022/11/04 10:56:36;;;;;;;7.00;2.88;;;20.20;60.20;;;;;;6292676;28;20544;-68
2022/11/04 10:59:57;;;;;;;6.72;2.58;;;20.20;60.30;;;;;;6293415;28;20029;-69
2022/11/04 11:02:58;;;;;;;5.05;2.60;;;20.20;60.10;;;;;;6268338;28;20087;-70
2022/11/04 11:06:23;;;;;;;5.72;2.50;;;20.20;60.30;;;;;;6283789;28;20028;-70
2022/11/04 11:09:29;;;;;;;10.13;2.72;;;20.20;60.40;;;;;;6293292;28;20120;-70
2022/11/04 11:12:35;;;;;;;9.45;2.55;;;20.20;60.40;;;;;;6298490;28;20067;-69
2022/11/04 11:15:38;;;;;;;10.23;2.78;;;20.20;60.40;;;;;;6297799;28;20027;-69
2022/11/04 11:18:40;;;;;;;7.90;2.60;;;20.20;60.70;;;;;;6297989;28;20479;-69
2022/11/04 11:21:43;;;;;;;5.55;2.22;;;20.10;60.60;;;;;;6297711;28;20082;-68
2022/11/04 11:24:44;;;;;;;8.63;2.55;;;20.20;60.60;;;;;;6296692;28;20394;-68
2022/11/04 11:27:59;;;;;;;13.82;2.63;;;20.20;60.60;;;;;;6297512;28;20032;-69
2022/11/04 11:31:07;;;;;;;6.78;2.38;;;20.20;60.40;;;;;;6296494;28;20561;-69
2022/11/04 11:34:25;;;;;;;4.30;2.25;;;20.20;60.70;;;;;;6297517;28;20107;-70
2022/11/04 11:37:29;;;;;;;3.80;2.35;;;20.20;60.70;;;;;;6297931;28;20107;-70
2022/11/04 11:40:36;;;;;;;5.37;2.30;;;20.20;60.70;;;;;;6297181;28;20085;-70
2022/11/04 11:43:43;;;;;;;10.25;3.35;;;20.20;60.20;;;;;;6297489;28;20024;-70
2022/11/04 11:46:53;;;;;;;6.25;2.80;;;20.20;59.40;;;;;;6285509;28;20021;-70
2022/11/04 11:50:33;;;;;;;5.13;2.55;;;20.20;59.90;;;;;;6295978;28;20036;-70
2022/11/04 11:53:37;;;;;;;9.23;2.72;;;20.20;60.20;;;;;;6273881;28;20083;-70
2022/11/04 11:56:42;;;;;;;6.28;2.33;;;20.10;60.20;;;;;;6292513;28;20033;-70
2022/11/04 11:59:49;;;;;;;9.02;3.20;;;20.10;60.10;;;;;;6297252;28;20032;-68
2022/11/04 12:03:12;;;;;;;8.68;3.10;;;20.10;60.20;;;;;;6287073;28;20095;-68
2022/11/04 12:06:59;;;;;;;6.82;2.53;;;20.10;60.00;;;;;;6297648;28;20024;-68
2022/11/04 12:10:18;;;;;;;5.05;2.63;;;20.10;59.90;;;;;;6290815;28;20048;-69
2022/11/04 12:13:36;;;;;;;9.65;2.95;;;20.10;59.80;;;;;;6297109;28;20028;-68
2022/11/04 12:16:45;;;;;;;5.72;2.42;;;20.10;59.60;;;;;;6297250;28;20073;-68
2022/11/04 12:20:17;;;;;;;5.85;2.72;;;20.10;59.70;;;;;;6297383;28;20066;-70
2022/11/04 12:23:38;;;;;;;4.60;2.40;;;20.10;59.70;;;;;;6288727;28;20080;-69
2022/11/04 12:26:49;;;;;;;5.43;2.17;;;20.10;59.70;;;;;;6291025;28;20016;-69
2022/11/04 12:30:16;;;;;;;5.03;2.25;;;20.00;59.50;;;;;;6297022;28;20082;-69
2022/11/04 12:33:42;;;;;;;4.70;2.70;;;20.10;59.20;;;;;;6296533;28;20528;-68
2022/11/04 12:37:11;;;;;;;7.22;2.15;;;20.10;59.10;;;;;;6297150;28;20350;-69
2022/11/04 12:40:27;;;;;;;4.45;2.20;;;20.10;59.30;;;;;;6296107;28;20040;-69
2022/11/04 12:43:34;;;;;;;7.30;2.50;;;20.10;59.30;;;;;;6296076;28;20044;-69
2022/11/04 12:47:06;;;;;;;6.22;2.40;;;20.10;59.30;;;;;;6295904;28;20032;-69
2022/11/04 12:50:32;;;;;;;5.03;2.30;;;20.10;59.20;;;;;;6270257;28;20098;-68
2022/11/04 12:53:36;;;;;;;;;;;20.00;58.90;;;;;;6295631;28;20029;-68
2022/11/04 12:56:38;;;;;;;8.85;2.70;;;20.10;58.90;;;;;;6290193;28;19916;-69
2022/11/04 12:59:57;;;;;;;7.85;2.08;;;20.10;59.00;;;;;;6271440;28;20052;-69
2022/11/04 13:03:47;;;;;;;4.85;2.13;;;20.00;58.90;;;;;;6288639;28;20612;-68
2022/11/04 13:07:03;;;;;;;10.07;2.80;;;20.10;58.80;;;;;;6288454;28;20498;-68
2022/11/04 13:10:19;;;;;;;5.00;2.17;;;20.00;58.90;;;;;;6292850;28;20021;-69
2022/11/04 13:13:31;;;;;;;3.38;1.95;;;20.10;58.90;;;;;;6295177;28;20510;-68
2022/11/04 13:16:37;;;;;;;7.90;2.35;;;20.10;59.50;;;;;;6295302;28;20017;-68
2022/11/04 13:19:53;;;;;;;3.72;2.00;;;20.10;58.90;;;;;;6295346;28;20024;-69
2022/11/04 13:22:59;;;;;;;2.60;1.63;;;20.10;58.80;;;;;;6294504;28;20029;-68
2022/11/04 13:26:02;;;;;;;3.25;1.80;;;20.10;58.50;;;;;;6285785;28;20041;-68
2022/11/04 13:29:12;;;;;;;3.40;1.85;;;20.10;58.20;;;;;;6294656;28;20183;-69
2022/11/04 13:32:21;;;;;;;7.88;2.10;;;20.10;58.10;;;;;;6284855;28;20035;-69
2022/11/04 13:35:30;;;;;;;4.55;2.15;;;20.10;57.90;;;;;;6294590;28;20137;-68
2022/11/04 13:38:37;;;;;;;5.30;2.00;;;20.10;58.00;;;;;;6291744;28;20052;-69
2022/11/04 13:41:53;;;;;;;4.65;1.65;;;20.10;58.20;;;;;;6294433;28;20039;-68
2022/11/04 13:44:56;;;;;;;3.05;1.95;;;20.10;58.20;;;;;;6288571;28;20025;-68
2022/11/04 13:47:57;;;;;;;1.85;1.30;;;20.10;58.30;;;;;;6280840;28;20012;-69
2022/11/04 13:51:04;;;;;;;5.00;1.95;;;20.10;58.40;;;;;;6294193;28;20048;-69
2022/11/04 13:54:06;;;;;;;5.65;1.70;;;20.10;58.50;;;;;;6294577;28;20081;-69
2022/11/04 13:57:13;;;;;;;4.15;1.45;;;20.10;58.50;;;;;;6294058;28;20379;-68
2022/11/04 14:00:24;;;;;;;3.55;1.90;;;20.10;58.70;;;;;;6294484;28;20574;-68
2022/11/04 14:03:47;;;;;;;3.55;1.90;;;20.10;58.70;;;;;;6294425;28;20020;-68
2022/11/04 14:06:50;;;;;;;3.40;1.55;;;20.00;58.60;;;;;;6294583;28;20025;-69
2022/11/04 14:09:54;;;;;;;7.75;2.15;;;20.00;58.40;;;;;;6293991;28;20135;-69
2022/11/04 14:13:47;;;;;;;5.35;1.70;;;20.10;58.50;;;;;;6293491;28;20100;-68
2022/11/04 14:16:47;;;;;;;2.83;1.50;;;20.10;58.60;;;;;;6284867;28;20033;-68
2022/11/04 14:19:54;;;;;;;4.00;1.80;;;20.10;58.60;;;;;;6293706;28;20020;-68
2022/11/04 14:22:57;;;;;;;6.30;1.83;;;20.10;58.70;;;;;;6293564;28;20036;-68
2022/11/04 14:26:07;;;;;;;3.13;1.60;;;20.10;58.70;;;;;;6293971;28;20025;-69
2022/11/04 14:29:22;;;;;;;4.47;1.52;;;20.00;58.70;;;;;;6293522;28;20491;-68
2022/11/04 14:32:29;;;;;;;2.03;1.57;;;20.10;58.90;;;;;;6283490;28;20460;-68
2022/11/04 14:35:31;;;;;;;2.80;1.60;;;20.10;58.90;;;;;;6291778;28;20364;-69
2022/11/04 14:38:33;;;;;;;3.97;2.45;;;20.10;58.80;;;;;;6293219;28;20384;-69
2022/11/04 14:41:39;;;;;;;2.85;1.48;;;20.10;59.10;;;;;;6281691;28;20506;-69
2022/11/04 14:44:50;;;;;;;3.17;1.60;;;20.00;59.10;;;;;;6292208;28;20549;-68
2022/11/04 14:47:56;;;;;;;2.30;1.40;;;20.00;59.30;;;;;;6282740;28;20082;-69
2022/11/04 14:50:57;;;;;;;7.00;1.70;;;20.10;59.50;;;;;;6292428;28;20095;-68
2022/11/04 14:54:20;;;;;;;3.92;2.20;;;20.10;59.30;;;;;;6292437;28;20029;-68
2022/11/04 14:57:22;;;;;;;6.38;2.20;;;20.10;58.20;;;;;;6292744;28;20028;-69
2022/11/04 15:00:34;;;;;;;6.05;1.58;;;20.10;58.60;;;;;;6292533;28;20620;-69
2022/11/04 15:03:37;;;;;;;7.10;1.90;;;20.10;58.50;;;;;;6292503;28;20124;-69
2022/11/04 15:06:37;;;;;;;2.80;1.80;;;20.10;58.60;;;;;;6292449;28;20063;-68
2022/11/04 15:09:47;;;;;;;2.08;1.58;;;20.10;58.70;;;;;;6292407;28;20039;-68
2022/11/04 15:12:51;;;;;;;2.58;1.48;;;20.10;59.00;;;;;;6291945;28;20032;-68
2022/11/04 15:15:54;;;;;;;6.32;1.77;;;20.10;59.20;;;;;;6293015;28;20475;-69
2022/11/04 15:18:58;;;;;;;4.00;1.52;;;20.10;59.10;;;;;;6293878;28;20107;-69
2022/11/04 15:22:01;;;;;;;4.50;1.60;;;20.20;59.10;;;;;;6293779;28;20037;-69
2022/11/04 15:25:04;;;;;;;3.70;2.03;;;20.20;59.50;;;;;;6294050;28;20017;-69
2022/11/04 15:28:18;;;;;;;6.50;1.83;;;20.10;59.30;;;;;;6294104;28;20032;-69
2022/11/04 15:31:22;;;;;;;7.25;1.52;;;20.10;59.40;;;;;;6275699;28;20029;-69
2022/11/04 15:34:25;;;;;;;3.72;1.38;;;20.10;59.60;;;;;;6278040;28;20539;-69
2022/11/04 15:37:28;;;;;;;2.17;1.42;;;20.10;59.50;;;;;;6293638;28;20025;-69
2022/11/04 15:40:32;;;;;;;5.30;1.73;;;20.10;59.40;;;;;;6293981;28;20099;-68
2022/11/04 15:43:33;;;;;;;3.37;1.70;;;20.10;59.40;;;;;;6293385;28;20398;-69
2022/11/04 15:46:34;;;;;;;3.78;1.30;;;20.10;59.60;;;;;;6294064;28;20028;-70
2022/11/04 15:49:34;;;;;;;5.82;1.50;;;20.10;59.70;;;;;;6293057;28;20027;-69
2022/11/04 15:52:36;;;;;;;3.05;1.55;;;20.10;59.70;;;;;;6291974;28;20052;-69
2022/11/04 15:55:38;;;;;;;6.57;1.50;;;20.10;59.70;;;;;;6292804;28;20031;-69
2022/11/04 15:58:40;;;;;;;4.68;1.60;;;20.10;59.80;;;;;;6297754;28;20099;-69
2022/11/04 16:01:49;;;;;;;3.08;1.60;;;20.10;59.80;;;;;;6297958;28;20483;-69
2022/11/04 16:05:04;;;;;;;4.13;1.40;;;20.10;59.80;;;;;;6297799;28;20371;-68
2022/11/04 16:08:22;;;;;;;3.42;1.67;;;20.10;59.80;;;;;;6273458;28;20483;-68
2022/11/04 16:11:23;;;;;;;2.50;1.10;;;20.10;59.80;;;;;;6295151;28;20039;-68
2022/11/04 16:14:27;;;;;;;4.88;1.80;;;20.10;60.00;;;;;;6297614;28;20025;-69
2022/11/04 16:17:30;;;;;;;1.67;1.15;;;20.10;59.90;;;;;;6297681;28;20048;-68
2022/11/04 16:20:33;;;;;;;1.90;1.23;;;20.10;60.00;;;;;;6297681;28;20033;-68
2022/11/04 16:23:43;;;;;;;2.88;1.60;;;20.10;60.00;;;;;;6296781;28;20115;-69
2022/11/04 16:26:45;;;;;;;4.75;1.42;;;20.10;60.20;;;;;;6295816;28;20031;-68
2022/11/04 16:29:53;;;;;;;5.13;1.40;;;20.10;60.10;;;;;;6297601;28;20055;-69
2022/11/04 16:33:05;;;;;;;3.00;1.52;;;20.10;60.10;;;;;;6296585;28;20060;-69
2022/11/04 16:36:22;;;;;;;2.58;1.45;;;20.10;60.10;;;;;;6297296;28;20020;-68
2022/11/04 16:39:22;;;;;;;2.13;1.30;;;20.10;60.20;;;;;;6297641;28;20521;-68
2022/11/04 16:42:23;;;;;;;4.30;1.20;;;20.10;60.20;;;;;;6297106;28;20037;-68
2022/11/04 16:45:28;;;;;;;2.95;1.52;;;20.10;60.20;;;;;;6297287;28;20063;-69
2022/11/04 16:48:29;;;;;;;2.22;1.65;;;20.10;60.20;;;;;;6297268;28;20422;-68
2022/11/04 16:51:32;;;;;;;5.47;1.70;;;20.10;59.90;;;;;;6297044;28;20101;-68